sensor_id;sensor_type;location;lat;lon;timestamp;temperature;humidity
22562;DHT22;11447;50.562;8.504;2022-12-26T00:00:11;11.50;77.40
22562;DHT22;11447;50.562;8.504;2022-12-26T00:02:41;11.50;77.40
22562;DHT22;11447;50.562;8.504;2022-12-26T00:05:08;11.50;77.40
22562;DHT22;11447;50.562;8.504;2022-12-26T00:07:34;11.60;77.40
22562;DHT22;11447;50.562;8.504;2022-12-26T00:10:01;11.60;77.40
22562;DHT22;11447;50.562;8.504;2022-12-26T00:12:30;11.50;77.40
22562;DHT22;11447;50.562;8.504;2022-12-26T00:14:57;11.50;77.40
22562;DHT22;11447;50.562;8.504;2022-12-26T00:17:28;11.50;77.40
22562;DHT22;11447;50.562;8.504;2022-12-26T00:19:57;11.50;77.40
22562;DHT22;11447;50.562;8.504;2022-12-26T00:22:26;11.60;77.40
22562;DHT22;11447;50.562;8.504;2022-12-26T00:24:55;11.60;77.40
22562;DHT22;11447;50.562;8.504;2022-12-26T00:27:21;11.60;77.40
22562;DHT22;11447;50.562;8.504;2022-12-26T00:29:50;11.50;77.40
22562;DHT22;11447;50.562;8.504;2022-12-26T00:32:17;11.50;77.40
22562;DHT22;11447;50.562;8.504;2022-12-26T00:34:43;11.50;77.40
22562;DHT22;11447;50.562;8.504;2022-12-26T00:37:10;11.50;77.40
22562;DHT22;11447;50.562;8.504;2022-12-26T00:39:37;11.40;77.40
22562;DHT22;11447;50.562;8.504;2022-12-26T00:42:03;11.40;77.40
22562;DHT22;11447;50.562;8.504;2022-12-26T00:44:30;11.40;77.40
22562;DHT22;11447;50.562;8.504;2022-12-26T00:46:57;11.50;77.40
22562;DHT22;11447;50.562;8.504;2022-12-26T00:49:24;11.50;77.40
22562;DHT22;11447;50.562;8.504;2022-12-26T00:51:50;11.50;77.40
22562;DHT22;11447;50.562;8.504;2022-12-26T00:54:19;11.50;77.40
22562;DHT22;11447;50.562;8.504;2022-12-26T00:56:46;11.50;77.40
22562;DHT22;11447;50.562;8.504;2022-12-26T00:59:13;11.50;77.40
22562;DHT22;11447;50.562;8.504;2022-12-26T01:01:39;11.50;77.40
22562;DHT22;11447;50.562;8.504;2022-12-26T01:04:06;11.40;77.40
22562;DHT22;11447;50.562;8.504;2022-12-26T01:06:33;11.40;77.40
22562;DHT22;11447;50.562;8.504;2022-12-26T01:09:02;11.40;77.40
22562;DHT22;11447;50.562;8.504;2022-12-26T01:11:29;11.50;77.40
22562;DHT22;11447;50.562;8.504;2022-12-26T01:14:12;11.40;77.40
22562;DHT22;11447;50.562;8.504;2022-12-26T01:16:39;11.30;77.40
22562;DHT22;11447;50.562;8.504;2022-12-26T01:19:07;11.30;77.40
22562;DHT22;11447;50.562;8.504;2022-12-26T01:21:33;11.30;77.40
22562;DHT22;11447;50.562;8.504;2022-12-26T01:24:03;11.30;77.40
22562;DHT22;11447;50.562;8.504;2022-12-26T01:26:29;11.10;77.40
22562;DHT22;11447;50.562;8.504;2022-12-26T01:28:56;11.20;77.40
22562;DHT22;11447;50.562;8.504;2022-12-26T01:31:22;11.20;77.40
22562;DHT22;11447;50.562;8.504;2022-12-26T01:33:49;11.10;77.40
22562;DHT22;11447;50.562;8.504;2022-12-26T01:36:18;10.90;77.40
22562;DHT22;11447;50.562;8.504;2022-12-26T01:38:45;11.00;77.40
22562;DHT22;11447;50.562;8.504;2022-12-26T01:41:12;10.90;77.40
22562;DHT22;11447;50.562;8.504;2022-12-26T01:46:15;11.00;77.40
22562;DHT22;11447;50.562;8.504;2022-12-26T01:48:42;11.00;77.40
22562;DHT22;11447;50.562;8.504;2022-12-26T01:51:08;11.00;77.40
22562;DHT22;11447;50.562;8.504;2022-12-26T01:53:37;11.10;77.40
22562;DHT22;11447;50.562;8.504;2022-12-26T01:58:32;11.00;77.40
22562;DHT22;11447;50.562;8.504;2022-12-26T02:01:00;11.00;77.40
22562;DHT22;11447;50.562;8.504;2022-12-26T02:03:28;11.20;77.40
22562;DHT22;11447;50.562;8.504;2022-12-26T02:06:13;11.20;77.40
22562;DHT22;11447;50.562;8.504;2022-12-26T02:08:40;11.30;77.40
22562;DHT22;11447;50.562;8.504;2022-12-26T02:11:15;11.20;77.40
22562;DHT22;11447;50.562;8.504;2022-12-26T02:13:43;11.30;77.40
22562;DHT22;11447;50.562;8.504;2022-12-26T02:16:11;11.40;77.40
22562;DHT22;11447;50.562;8.504;2022-12-26T02:18:38;11.30;77.40
22562;DHT22;11447;50.562;8.504;2022-12-26T02:21:12;11.30;77.40
22562;DHT22;11447;50.562;8.504;2022-12-26T02:31:25;11.40;77.40
22562;DHT22;11447;50.562;8.504;2022-12-26T02:39:13;11.30;77.40
22562;DHT22;11447;50.562;8.504;2022-12-26T02:44:52;11.30;77.40
22562;DHT22;11447;50.562;8.504;2022-12-26T02:56:05;11.50;77.40
22562;DHT22;11447;50.562;8.504;2022-12-26T03:01:44;11.60;77.40
22562;DHT22;11447;50.562;8.504;2022-12-26T03:04:32;11.60;77.40
22562;DHT22;11447;50.562;8.504;2022-12-26T03:07:24;11.60;77.40
22562;DHT22;11447;50.562;8.504;2022-12-26T03:10:24;11.70;77.40
22562;DHT22;11447;50.562;8.504;2022-12-26T03:13:17;11.70;77.40
22562;DHT22;11447;50.562;8.504;2022-12-26T03:15:52;11.80;77.40
22562;DHT22;11447;50.562;8.504;2022-12-26T03:18:40;11.80;77.40
22562;DHT22;11447;50.562;8.504;2022-12-26T03:21:25;11.80;77.40
22562;DHT22;11447;50.562;8.504;2022-12-26T03:23:52;11.80;77.40
22562;DHT22;11447;50.562;8.504;2022-12-26T03:26:28;11.70;77.40
22562;DHT22;11447;50.562;8.504;2022-12-26T03:29:10;11.80;77.40
22562;DHT22;11447;50.562;8.504;2022-12-26T03:31:58;11.80;77.40
22562;DHT22;11447;50.562;8.504;2022-12-26T03:34:25;11.80;77.40
22562;DHT22;11447;50.562;8.504;2022-12-26T03:37:17;11.80;77.40
22562;DHT22;11447;50.562;8.504;2022-12-26T03:42:36;11.80;77.40
22562;DHT22;11447;50.562;8.504;2022-12-26T03:45:28;11.80;77.40
22562;DHT22;11447;50.562;8.504;2022-12-26T03:48:18;11.70;77.40
22562;DHT22;11447;50.562;8.504;2022-12-26T03:51:07;11.80;77.40
22562;DHT22;11447;50.562;8.504;2022-12-26T03:54:16;11.70;77.40
22562;DHT22;11447;50.562;8.504;2022-12-26T03:57:00;11.60;77.40
22562;DHT22;11447;50.562;8.504;2022-12-26T03:59:52;11.70;77.40
22562;DHT22;11447;50.562;8.504;2022-12-26T04:02:39;11.70;77.40
22562;DHT22;11447;50.562;8.504;2022-12-26T04:05:30;11.70;77.40
22562;DHT22;11447;50.562;8.504;2022-12-26T04:08:23;11.70;77.40
22562;DHT22;11447;50.562;8.504;2022-12-26T04:11:11;11.70;77.40
22562;DHT22;11447;50.562;8.504;2022-12-26T04:14:04;11.60;77.40
22562;DHT22;11447;50.562;8.504;2022-12-26T04:17:01;11.80;77.40
22562;DHT22;11447;50.562;8.504;2022-12-26T04:19:56;11.60;77.40
22562;DHT22;11447;50.562;8.504;2022-12-26T04:25:25;11.70;77.40
22562;DHT22;11447;50.562;8.504;2022-12-26T04:28:16;11.80;77.40
22562;DHT22;11447;50.562;8.504;2022-12-26T04:31:10;11.70;77.40
22562;DHT22;11447;50.562;8.504;2022-12-26T04:34:01;11.70;77.40
22562;DHT22;11447;50.562;8.504;2022-12-26T04:36:50;11.70;77.40
22562;DHT22;11447;50.562;8.504;2022-12-26T04:39:37;11.60;77.40
22562;DHT22;11447;50.562;8.504;2022-12-26T04:42:23;11.70;77.40
22562;DHT22;11447;50.562;8.504;2022-12-26T04:45:10;11.70;77.40
22562;DHT22;11447;50.562;8.504;2022-12-26T04:47:37;11.80;77.40
22562;DHT22;11447;50.562;8.504;2022-12-26T04:50:24;11.80;77.40
22562;DHT22;11447;50.562;8.504;2022-12-26T04:52:51;11.80;77.40
22562;DHT22;11447;50.562;8.504;2022-12-26T04:55:24;11.90;77.40
22562;DHT22;11447;50.562;8.504;2022-12-26T04:57:52;11.90;77.40
22562;DHT22;11447;50.562;8.504;2022-12-26T05:00:20;12.00;77.40
22562;DHT22;11447;50.562;8.504;2022-12-26T05:02:52;11.90;77.40
22562;DHT22;11447;50.562;8.504;2022-12-26T05:05:45;12.00;77.40
22562;DHT22;11447;50.562;8.504;2022-12-26T05:08:38;12.00;77.40
22562;DHT22;11447;50.562;8.504;2022-12-26T05:11:27;12.00;77.40
22562;DHT22;11447;50.562;8.504;2022-12-26T05:13:55;12.00;77.40
22562;DHT22;11447;50.562;8.504;2022-12-26T05:16:24;12.10;77.40
22562;DHT22;11447;50.562;8.504;2022-12-26T05:19:13;12.10;77.40
22562;DHT22;11447;50.562;8.504;2022-12-26T05:22:03;12.00;77.40
22562;DHT22;11447;50.562;8.504;2022-12-26T05:24:49;12.00;77.40
22562;DHT22;11447;50.562;8.504;2022-12-26T05:27:41;12.00;77.40
22562;DHT22;11447;50.562;8.504;2022-12-26T05:30:27;12.00;77.40
22562;DHT22;11447;50.562;8.504;2022-12-26T05:32:54;12.00;77.40
22562;DHT22;11447;50.562;8.504;2022-12-26T05:35:40;12.10;77.40
22562;DHT22;11447;50.562;8.504;2022-12-26T05:38:07;12.10;77.40
22562;DHT22;11447;50.562;8.504;2022-12-26T05:40:37;12.10;77.40
22562;DHT22;11447;50.562;8.504;2022-12-26T05:43:03;12.00;77.40
22562;DHT22;11447;50.562;8.504;2022-12-26T05:45:30;12.10;77.40
22562;DHT22;11447;50.562;8.504;2022-12-26T05:47:57;12.10;77.40
22562;DHT22;11447;50.562;8.504;2022-12-26T05:50:25;12.20;77.40
22562;DHT22;11447;50.562;8.504;2022-12-26T05:52:52;12.10;77.40
22562;DHT22;11447;50.562;8.504;2022-12-26T05:55:18;12.20;77.40
22562;DHT22;11447;50.562;8.504;2022-12-26T05:57:45;12.20;77.40
22562;DHT22;11447;50.562;8.504;2022-12-26T06:00:14;12.20;77.40
22562;DHT22;11447;50.562;8.504;2022-12-26T06:02:41;12.20;77.40
22562;DHT22;11447;50.562;8.504;2022-12-26T06:05:10;12.20;77.40
22562;DHT22;11447;50.562;8.504;2022-12-26T06:07:39;12.20;77.40
22562;DHT22;11447;50.562;8.504;2022-12-26T06:10:06;12.20;77.40
22562;DHT22;11447;50.562;8.504;2022-12-26T06:12:33;12.30;77.40
22562;DHT22;11447;50.562;8.504;2022-12-26T06:15:00;12.20;77.40
22562;DHT22;11447;50.562;8.504;2022-12-26T06:17:29;12.40;77.40
22562;DHT22;11447;50.562;8.504;2022-12-26T06:19:55;12.20;77.40
22562;DHT22;11447;50.562;8.504;2022-12-26T06:22:24;12.30;77.40
22562;DHT22;11447;50.562;8.504;2022-12-26T06:24:55;12.20;77.40
22562;DHT22;11447;50.562;8.504;2022-12-26T06:27:24;12.20;77.40
22562;DHT22;11447;50.562;8.504;2022-12-26T06:29:51;12.30;77.40
22562;DHT22;11447;50.562;8.504;2022-12-26T06:32:18;12.30;77.40
22562;DHT22;11447;50.562;8.504;2022-12-26T06:34:44;12.20;77.40
22562;DHT22;11447;50.562;8.504;2022-12-26T06:37:14;12.30;77.40
22562;DHT22;11447;50.562;8.504;2022-12-26T06:39:41;12.30;77.40
22562;DHT22;11447;50.562;8.504;2022-12-26T06:42:10;12.30;77.40
22562;DHT22;11447;50.562;8.504;2022-12-26T06:44:37;12.30;77.40
22562;DHT22;11447;50.562;8.504;2022-12-26T06:47:06;12.30;77.40
22562;DHT22;11447;50.562;8.504;2022-12-26T06:49:33;12.30;77.40
22562;DHT22;11447;50.562;8.504;2022-12-26T06:51:59;12.30;77.40
22562;DHT22;11447;50.562;8.504;2022-12-26T06:54:28;12.30;77.40
22562;DHT22;11447;50.562;8.504;2022-12-26T06:56:55;12.20;77.40
22562;DHT22;11447;50.562;8.504;2022-12-26T06:59:21;12.20;77.40
22562;DHT22;11447;50.562;8.504;2022-12-26T07:01:50;12.20;77.40
22562;DHT22;11447;50.562;8.504;2022-12-26T07:04:17;12.20;77.40
22562;DHT22;11447;50.562;8.504;2022-12-26T07:06:44;12.20;77.40
22562;DHT22;11447;50.562;8.504;2022-12-26T07:09:11;12.20;77.40
22562;DHT22;11447;50.562;8.504;2022-12-26T07:11:40;12.10;77.40
22562;DHT22;11447;50.562;8.504;2022-12-26T07:14:07;12.20;77.40
22562;DHT22;11447;50.562;8.504;2022-12-26T07:16:34;12.10;77.40
22562;DHT22;11447;50.562;8.504;2022-12-26T07:19:04;12.10;77.40
22562;DHT22;11447;50.562;8.504;2022-12-26T07:21:33;12.10;77.40
22562;DHT22;11447;50.562;8.504;2022-12-26T07:24:06;12.10;77.40
22562;DHT22;11447;50.562;8.504;2022-12-26T07:26:37;12.00;77.40
22562;DHT22;11447;50.562;8.504;2022-12-26T07:29:08;12.00;77.40
22562;DHT22;11447;50.562;8.504;2022-12-26T07:31:35;12.00;77.40
22562;DHT22;11447;50.562;8.504;2022-12-26T07:34:04;12.10;77.40
22562;DHT22;11447;50.562;8.504;2022-12-26T07:36:31;12.00;77.40
22562;DHT22;11447;50.562;8.504;2022-12-26T07:38:57;12.10;77.40
22562;DHT22;11447;50.562;8.504;2022-12-26T07:41:24;12.10;77.40
22562;DHT22;11447;50.562;8.504;2022-12-26T07:44:09;12.10;77.40
22562;DHT22;11447;50.562;8.504;2022-12-26T07:46:36;12.00;77.40
22562;DHT22;11447;50.562;8.504;2022-12-26T07:49:06;12.10;77.40
22562;DHT22;11447;50.562;8.504;2022-12-26T07:51:32;12.00;77.40
22562;DHT22;11447;50.562;8.504;2022-12-26T07:53:59;11.90;77.40
22562;DHT22;11447;50.562;8.504;2022-12-26T07:56:34;12.00;77.40
22562;DHT22;11447;50.562;8.504;2022-12-26T07:59:01;11.90;77.40
22562;DHT22;11447;50.562;8.504;2022-12-26T08:01:27;11.90;77.40
22562;DHT22;11447;50.562;8.504;2022-12-26T08:03:54;11.90;77.40
22562;DHT22;11447;50.562;8.504;2022-12-26T08:06:21;11.90;77.40
22562;DHT22;11447;50.562;8.504;2022-12-26T08:08:49;11.90;77.40
22562;DHT22;11447;50.562;8.504;2022-12-26T08:11:18;11.80;77.40
22562;DHT22;11447;50.562;8.504;2022-12-26T08:13:48;11.80;77.40
22562;DHT22;11447;50.562;8.504;2022-12-26T08:16:15;11.80;77.40
22562;DHT22;11447;50.562;8.504;2022-12-26T08:18:41;11.70;77.40
22562;DHT22;11447;50.562;8.504;2022-12-26T08:21:09;11.70;77.40
22562;DHT22;11447;50.562;8.504;2022-12-26T08:23:36;11.80;77.40
22562;DHT22;11447;50.562;8.504;2022-12-26T08:26:06;11.70;77.40
22562;DHT22;11447;50.562;8.504;2022-12-26T08:28:37;11.60;77.40
22562;DHT22;11447;50.562;8.504;2022-12-26T08:31:05;11.80;77.40
22562;DHT22;11447;50.562;8.504;2022-12-26T08:33:32;11.70;77.40
22562;DHT22;11447;50.562;8.504;2022-12-26T08:36:02;11.60;77.40
22562;DHT22;11447;50.562;8.504;2022-12-26T08:38:29;11.70;77.40
22562;DHT22;11447;50.562;8.504;2022-12-26T08:40:59;11.70;77.40
22562;DHT22;11447;50.562;8.504;2022-12-26T08:43:26;11.70;77.40
22562;DHT22;11447;50.562;8.504;2022-12-26T08:46:15;11.80;77.40
22562;DHT22;11447;50.562;8.504;2022-12-26T08:48:45;11.70;77.40
22562;DHT22;11447;50.562;8.504;2022-12-26T08:51:19;11.70;77.40
22562;DHT22;11447;50.562;8.504;2022-12-26T08:53:47;11.70;77.40
22562;DHT22;11447;50.562;8.504;2022-12-26T08:56:18;11.80;77.40
22562;DHT22;11447;50.562;8.504;2022-12-26T08:58:48;11.70;77.40
22562;DHT22;11447;50.562;8.504;2022-12-26T09:01:15;11.80;77.40
22562;DHT22;11447;50.562;8.504;2022-12-26T09:03:42;11.60;77.40
22562;DHT22;11447;50.562;8.504;2022-12-26T09:06:14;11.70;77.40
22562;DHT22;11447;50.562;8.504;2022-12-26T09:08:43;11.70;77.40
22562;DHT22;11447;50.562;8.504;2022-12-26T09:11:13;11.60;77.40
22562;DHT22;11447;50.562;8.504;2022-12-26T09:13:40;11.60;77.40
22562;DHT22;11447;50.562;8.504;2022-12-26T09:18:37;11.60;77.40
22562;DHT22;11447;50.562;8.504;2022-12-26T09:21:05;11.60;77.40
22562;DHT22;11447;50.562;8.504;2022-12-26T09:23:32;11.60;77.40
22562;DHT22;11447;50.562;8.504;2022-12-26T09:26:05;11.60;77.40
22562;DHT22;11447;50.562;8.504;2022-12-26T09:28:35;11.60;77.40
22562;DHT22;11447;50.562;8.504;2022-12-26T09:31:02;11.60;77.40
22562;DHT22;11447;50.562;8.504;2022-12-26T09:33:30;11.60;77.40
22562;DHT22;11447;50.562;8.504;2022-12-26T09:35:58;11.60;77.40
22562;DHT22;11447;50.562;8.504;2022-12-26T09:38:31;11.60;77.40
22562;DHT22;11447;50.562;8.504;2022-12-26T09:41:12;11.60;77.40
22562;DHT22;11447;50.562;8.504;2022-12-26T09:49:18;11.70;77.40
22562;DHT22;11447;50.562;8.504;2022-12-26T09:51:50;11.70;77.40
22562;DHT22;11447;50.562;8.504;2022-12-26T09:54:24;11.70;77.40
22562;DHT22;11447;50.562;8.504;2022-12-26T09:56:55;11.90;77.40
22562;DHT22;11447;50.562;8.504;2022-12-26T09:59:28;11.80;77.40
22562;DHT22;11447;50.562;8.504;2022-12-26T10:01:57;11.80;77.40
22562;DHT22;11447;50.562;8.504;2022-12-26T10:04:28;11.80;77.40
22562;DHT22;11447;50.562;8.504;2022-12-26T10:07:05;11.90;77.40
22562;DHT22;11447;50.562;8.504;2022-12-26T10:20:16;12.10;77.40
22562;DHT22;11447;50.562;8.504;2022-12-26T10:28:04;12.20;77.40
22562;DHT22;11447;50.562;8.504;2022-12-26T10:30:38;12.10;77.40
22562;DHT22;11447;50.562;8.504;2022-12-26T10:33:17;12.10;77.40
22562;DHT22;11447;50.562;8.504;2022-12-26T10:35:45;12.20;77.40
22562;DHT22;11447;50.562;8.504;2022-12-26T10:40:59;12.30;77.40
22562;DHT22;11447;50.562;8.504;2022-12-26T10:43:37;12.20;77.40
22562;DHT22;11447;50.562;8.504;2022-12-26T10:48:59;12.30;77.40
22562;DHT22;11447;50.562;8.504;2022-12-26T10:51:29;12.30;77.40
22562;DHT22;11447;50.562;8.504;2022-12-26T10:53:55;12.20;77.40
22562;DHT22;11447;50.562;8.504;2022-12-26T10:56:24;12.40;77.40
22562;DHT22;11447;50.562;8.504;2022-12-26T10:58:59;12.30;77.40
22562;DHT22;11447;50.562;8.504;2022-12-26T11:04:32;12.30;77.40
22562;DHT22;11447;50.562;8.504;2022-12-26T11:07:22;12.40;77.40
22562;DHT22;11447;50.562;8.504;2022-12-26T11:09:50;12.40;77.40
22562;DHT22;11447;50.562;8.504;2022-12-26T11:12:38;12.30;77.40
22562;DHT22;11447;50.562;8.504;2022-12-26T11:15:16;12.40;77.40
22562;DHT22;11447;50.562;8.504;2022-12-26T11:17:44;12.40;77.40
22562;DHT22;11447;50.562;8.504;2022-12-26T11:22:42;12.30;77.40
22562;DHT22;11447;50.562;8.504;2022-12-26T11:27:53;12.40;77.40
22562;DHT22;11447;50.562;8.504;2022-12-26T11:30:31;12.40;77.40
22562;DHT22;11447;50.562;8.504;2022-12-26T11:33:11;12.50;77.40
22562;DHT22;11447;50.562;8.504;2022-12-26T11:35:44;12.40;77.40
22562;DHT22;11447;50.562;8.504;2022-12-26T11:38:15;12.40;77.40
22562;DHT22;11447;50.562;8.504;2022-12-26T11:41:11;12.50;77.40
22562;DHT22;11447;50.562;8.504;2022-12-26T11:44:01;12.40;77.40
22562;DHT22;11447;50.562;8.504;2022-12-26T11:46:37;12.40;77.40
22562;DHT22;11447;50.562;8.504;2022-12-26T11:49:05;12.50;77.40
22562;DHT22;11447;50.562;8.504;2022-12-26T11:51:40;12.40;77.40
22562;DHT22;11447;50.562;8.504;2022-12-26T11:54:11;12.50;77.40
22562;DHT22;11447;50.562;8.504;2022-12-26T11:56:38;12.40;77.40
22562;DHT22;11447;50.562;8.504;2022-12-26T11:59:06;12.40;77.40
22562;DHT22;11447;50.562;8.504;2022-12-26T12:01:38;12.50;77.40
22562;DHT22;11447;50.562;8.504;2022-12-26T12:04:07;12.50;77.40
22562;DHT22;11447;50.562;8.504;2022-12-26T12:25:34;12.50;77.30
22562;DHT22;11447;50.562;8.504;2022-12-26T12:35:35;12.50;77.40
22562;DHT22;11447;50.562;8.504;2022-12-26T12:48:44;12.40;77.40
22562;DHT22;11447;50.562;8.504;2022-12-26T13:01:58;12.30;77.30
22562;DHT22;11447;50.562;8.504;2022-12-26T13:04:21;12.20;77.30
22562;DHT22;11447;50.562;8.504;2022-12-26T13:06:58;12.20;77.30
22562;DHT22;11447;50.562;8.504;2022-12-26T13:12:19;12.30;77.30
22562;DHT22;11447;50.562;8.504;2022-12-26T13:14:48;12.20;77.40
22562;DHT22;11447;50.562;8.504;2022-12-26T13:17:18;12.20;77.30
22562;DHT22;11447;50.562;8.504;2022-12-26T13:19:48;12.20;77.40
22562;DHT22;11447;50.562;8.504;2022-12-26T13:23:05;12.30;77.40
22562;DHT22;11447;50.562;8.504;2022-12-26T13:25:24;12.20;77.40
22562;DHT22;11447;50.562;8.504;2022-12-26T13:27:52;12.20;77.40
22562;DHT22;11447;50.562;8.504;2022-12-26T13:30:21;12.20;77.40
22562;DHT22;11447;50.562;8.504;2022-12-26T13:32:50;12.30;77.40
22562;DHT22;11447;50.562;8.504;2022-12-26T13:38:08;12.30;77.40
22562;DHT22;11447;50.562;8.504;2022-12-26T13:40:34;12.20;77.40
22562;DHT22;11447;50.562;8.504;2022-12-26T13:43:12;12.20;77.40
22562;DHT22;11447;50.562;8.504;2022-12-26T13:45:59;12.20;77.40
22562;DHT22;11447;50.562;8.504;2022-12-26T13:55:52;12.10;77.40
22562;DHT22;11447;50.562;8.504;2022-12-26T14:00:51;12.10;77.40
22562;DHT22;11447;50.562;8.504;2022-12-26T14:08:50;11.30;77.40
22562;DHT22;11447;50.562;8.504;2022-12-26T14:16:27;10.70;77.40
22562;DHT22;11447;50.562;8.504;2022-12-26T14:19:39;10.50;77.40
22562;DHT22;11447;50.562;8.504;2022-12-26T14:26:57;10.50;77.40
22562;DHT22;11447;50.562;8.504;2022-12-26T14:29:50;10.40;77.40
22562;DHT22;11447;50.562;8.504;2022-12-26T14:32:19;10.30;77.40
22562;DHT22;11447;50.562;8.504;2022-12-26T14:37:30;10.60;77.40
22562;DHT22;11447;50.562;8.504;2022-12-26T14:43:00;10.50;77.40
22562;DHT22;11447;50.562;8.504;2022-12-26T14:45:50;10.60;77.40
22562;DHT22;11447;50.562;8.504;2022-12-26T15:06:15;10.40;77.40
22562;DHT22;11447;50.562;8.504;2022-12-26T15:24:44;10.20;77.40
22562;DHT22;11447;50.562;8.504;2022-12-26T15:30:12;10.20;77.40
22562;DHT22;11447;50.562;8.504;2022-12-26T15:40:43;10.30;77.40
22562;DHT22;11447;50.562;8.504;2022-12-26T15:45:46;10.20;77.40
22562;DHT22;11447;50.562;8.504;2022-12-26T15:51:03;10.10;77.40
22562;DHT22;11447;50.562;8.504;2022-12-26T16:01:45;10.20;77.40
22562;DHT22;11447;50.562;8.504;2022-12-26T16:04:34;10.00;77.40
22562;DHT22;11447;50.562;8.504;2022-12-26T16:09:47;10.00;77.40
22562;DHT22;11447;50.562;8.504;2022-12-26T16:15:00;9.80;77.40
22562;DHT22;11447;50.562;8.504;2022-12-26T16:17:28;9.60;77.40
22562;DHT22;11447;50.562;8.504;2022-12-26T16:19:55;9.60;77.40
22562;DHT22;11447;50.562;8.504;2022-12-26T16:25:16;9.30;77.40
22562;DHT22;11447;50.562;8.504;2022-12-26T16:27:44;9.20;77.40
22562;DHT22;11447;50.562;8.504;2022-12-26T16:30:15;9.20;77.40
22562;DHT22;11447;50.562;8.504;2022-12-26T16:32:43;9.20;77.40
22562;DHT22;11447;50.562;8.504;2022-12-26T16:35:26;9.10;77.40
22562;DHT22;11447;50.562;8.504;2022-12-26T16:37:54;9.00;77.40
22562;DHT22;11447;50.562;8.504;2022-12-26T16:40:32;8.90;77.40
22562;DHT22;11447;50.562;8.504;2022-12-26T16:43:08;9.10;77.40
22562;DHT22;11447;50.562;8.504;2022-12-26T16:45:51;9.20;77.40
22562;DHT22;11447;50.562;8.504;2022-12-26T16:48:18;9.10;77.40
22562;DHT22;11447;50.562;8.504;2022-12-26T16:50:49;9.10;77.40
22562;DHT22;11447;50.562;8.504;2022-12-26T16:53:22;9.10;77.40
22562;DHT22;11447;50.562;8.504;2022-12-26T16:55:56;9.10;77.40
22562;DHT22;11447;50.562;8.504;2022-12-26T16:58:27;9.20;77.40
22562;DHT22;11447;50.562;8.504;2022-12-26T17:01:14;9.10;77.40
22562;DHT22;11447;50.562;8.504;2022-12-26T17:03:46;9.10;77.40
22562;DHT22;11447;50.562;8.504;2022-12-26T17:06:16;9.00;77.40
22562;DHT22;11447;50.562;8.504;2022-12-26T17:08:46;8.90;77.40
22562;DHT22;11447;50.562;8.504;2022-12-26T17:11:13;9.00;77.40
22562;DHT22;11447;50.562;8.504;2022-12-26T17:13:44;9.00;77.40
22562;DHT22;11447;50.562;8.504;2022-12-26T17:16:13;9.00;77.40
22562;DHT22;11447;50.562;8.504;2022-12-26T17:21:27;8.90;77.40
22562;DHT22;11447;50.562;8.504;2022-12-26T17:26:37;8.90;77.40
22562;DHT22;11447;50.562;8.504;2022-12-26T17:29:04;8.80;77.40
22562;DHT22;11447;50.562;8.504;2022-12-26T17:34:01;8.90;77.40
22562;DHT22;11447;50.562;8.504;2022-12-26T17:36:30;8.90;77.40
22562;DHT22;11447;50.562;8.504;2022-12-26T17:39:23;8.90;77.40
22562;DHT22;11447;50.562;8.504;2022-12-26T17:41:51;8.90;77.40
22562;DHT22;11447;50.562;8.504;2022-12-26T17:47:16;8.90;77.40
22562;DHT22;11447;50.562;8.504;2022-12-26T17:49:42;8.90;77.40
22562;DHT22;11447;50.562;8.504;2022-12-26T17:52:10;8.80;77.40
22562;DHT22;11447;50.562;8.504;2022-12-26T17:54:37;8.80;77.40
22562;DHT22;11447;50.562;8.504;2022-12-26T17:57:06;8.80;77.40
22562;DHT22;11447;50.562;8.504;2022-12-26T17:59:34;8.80;77.40
22562;DHT22;11447;50.562;8.504;2022-12-26T18:02:00;8.90;77.40
22562;DHT22;11447;50.562;8.504;2022-12-26T18:04:29;8.80;77.40
22562;DHT22;11447;50.562;8.504;2022-12-26T18:06:58;8.90;77.40
22562;DHT22;11447;50.562;8.504;2022-12-26T18:09:26;8.80;77.40
22562;DHT22;11447;50.562;8.504;2022-12-26T18:11:53;9.00;77.40
22562;DHT22;11447;50.562;8.504;2022-12-26T18:14:20;8.90;77.40
22562;DHT22;11447;50.562;8.504;2022-12-26T18:16:47;9.00;77.40
22562;DHT22;11447;50.562;8.504;2022-12-26T18:19:17;8.90;77.40
22562;DHT22;11447;50.562;8.504;2022-12-26T18:21:46;8.90;77.40
22562;DHT22;11447;50.562;8.504;2022-12-26T18:24:13;8.80;77.40
22562;DHT22;11447;50.562;8.504;2022-12-26T18:26:39;9.00;77.40
22562;DHT22;11447;50.562;8.504;2022-12-26T18:29:08;8.90;77.40
22562;DHT22;11447;50.562;8.504;2022-12-26T18:31:35;8.90;77.40
22562;DHT22;11447;50.562;8.504;2022-12-26T18:34:07;8.90;77.40
22562;DHT22;11447;50.562;8.504;2022-12-26T18:36:37;9.00;77.40
22562;DHT22;11447;50.562;8.504;2022-12-26T18:39:08;8.80;77.40
22562;DHT22;11447;50.562;8.504;2022-12-26T18:41:35;8.90;77.40
22562;DHT22;11447;50.562;8.504;2022-12-26T18:44:02;8.90;77.40
22562;DHT22;11447;50.562;8.504;2022-12-26T18:46:29;8.90;77.40
22562;DHT22;11447;50.562;8.504;2022-12-26T18:48:56;8.90;77.40
22562;DHT22;11447;50.562;8.504;2022-12-26T18:51:23;8.80;77.40
22562;DHT22;11447;50.562;8.504;2022-12-26T18:53:50;8.80;77.40
22562;DHT22;11447;50.562;8.504;2022-12-26T18:56:18;8.80;77.40
22562;DHT22;11447;50.562;8.504;2022-12-26T18:58:45;8.70;77.40
22562;DHT22;11447;50.562;8.504;2022-12-26T19:01:18;8.80;77.40
22562;DHT22;11447;50.562;8.504;2022-12-26T19:03:45;8.80;77.40
22562;DHT22;11447;50.562;8.504;2022-12-26T19:06:17;8.70;77.40
22562;DHT22;11447;50.562;8.504;2022-12-26T19:08:45;8.70;77.40
22562;DHT22;11447;50.562;8.504;2022-12-26T19:11:12;8.70;77.40
22562;DHT22;11447;50.562;8.504;2022-12-26T19:13:39;8.60;77.40
22562;DHT22;11447;50.562;8.504;2022-12-26T19:16:06;8.60;77.40
22562;DHT22;11447;50.562;8.504;2022-12-26T19:18:32;8.60;77.40
22562;DHT22;11447;50.562;8.504;2022-12-26T19:21:00;8.50;77.40
22562;DHT22;11447;50.562;8.504;2022-12-26T19:23:26;8.60;77.40
22562;DHT22;11447;50.562;8.504;2022-12-26T19:25:53;8.40;77.20
22562;DHT22;11447;50.562;8.504;2022-12-26T19:28:19;8.40;77.40
22562;DHT22;11447;50.562;8.504;2022-12-26T19:30:47;8.30;76.40
22562;DHT22;11447;50.562;8.504;2022-12-26T19:33:16;8.30;77.40
22562;DHT22;11447;50.562;8.504;2022-12-26T19:35:44;8.20;77.00
22562;DHT22;11447;50.562;8.504;2022-12-26T19:38:13;8.00;73.90
22562;DHT22;11447;50.562;8.504;2022-12-26T19:40:39;7.90;73.70
22562;DHT22;11447;50.562;8.504;2022-12-26T19:43:06;7.90;72.90
22562;DHT22;11447;50.562;8.504;2022-12-26T19:45:32;7.90;75.30
22562;DHT22;11447;50.562;8.504;2022-12-26T19:47:59;8.10;76.50
22562;DHT22;11447;50.562;8.504;2022-12-26T19:50:26;7.90;73.70
22562;DHT22;11447;50.562;8.504;2022-12-26T19:52:53;8.00;74.40
22562;DHT22;11447;50.562;8.504;2022-12-26T19:55:19;8.00;72.90
22562;DHT22;11447;50.562;8.504;2022-12-26T19:57:46;7.80;72.10
22562;DHT22;11447;50.562;8.504;2022-12-26T20:00:12;7.80;74.50
22562;DHT22;11447;50.562;8.504;2022-12-26T20:02:39;7.80;71.90